Jay Michael — WDD2051 — position and weather

sailwx.info

Track history (hours):
 
Tides and Currents Weather Stations Pressure Air Temp Water Temp Dewpoint Dewpoint Depression Visibility Wind Speed Wind Dir Waves Ship Positions

Jay Michael

Owner: Sterling Equipment Inc., Quincy, MA. More information available from US FCC via Universal Licensing System and Coast Guard Vessel Documentation Center.

Last reported at 2016-Feb-10 17:27 UTC. Time now 2016-Feb-10 17:39 UTC.
Position N 40°39' W 074°08'.

Length 21 m; draft 2.5 m.

Type: Tug. MMSI: 367110280.

Date/timePositionNaut miles runAvg speedWind from/ knotsBaromVisibWave heightAir tempDewpointWater temp
2016-Feb-10 17:27N 40°39' W 074°08'1 0.2
2016-Feb-10 13:23N 40°39' W 074°09'1 0.9
2016-Feb-10 12:32N 40°38' W 074°09'0 0.0
2016-Feb-10 11:17N 40°38' W 074°09'0 0.0
2016-Feb-10 10:33N 40°38' W 074°09'0 0.0
2016-Feb-10 09:33N 40°38' W 074°09'0 0.0
2016-Feb-10 06:32N 40°38' W 074°09'0 0.0
2016-Feb-10 05:25N 40°38' W 074°09'0 0.0
2016-Feb-10 03:25N 40°38' W 074°09'0 0.0
2016-Feb-10 02:21N 40°38' W 074°09'0 0.0
2016-Feb-10 01:33N 40°38' W 074°09'0 0.0
2016-Feb-10 00:24N 40°38' W 074°09'0 0.0
2016-Feb-09 23:24N 40°38' W 074°09'0 0.0
2016-Feb-09 22:24N 40°38' W 074°09'0 0.0
2016-Feb-09 20:31N 40°38' W 074°09'0 0.0
2016-Feb-09 19:33N 40°38' W 074°09'0 0.0
2016-Feb-09 18:33N 40°38' W 074°09'0 0.0
2016-Feb-09 17:33N 40°38' W 074°09'0 0.0
2016-Feb-09 16:30N 40°38' W 074°09'0 0.0
2016-Feb-09 15:33N 40°38' W 074°09'0 0.0
2016-Feb-09 14:33N 40°38' W 074°09'2 0.1
2016-Feb-08 19:28N 40°38' W 074°12'1 1.2
2016-Feb-08 18:21N 40°39' W 074°10'1 1.0
2016-Feb-08 17:33N 40°39' W 074°11'  
2016-Feb-04 02:33N 40°38' W 074°09'0 0.0
2016-Feb-04 01:32N 40°38' W 074°09'0 0.0
2016-Feb-04 00:33N 40°38' W 074°09'0 0.0
2016-Feb-03 23:33N 40°38' W 074°09'0 0.0
2016-Feb-03 22:33N 40°38' W 074°09'1 0.7
2016-Feb-03 20:29N 40°39' W 074°11'2 1.6
2016-Feb-03 19:20N 40°39' W 074°09'0 0.1
2016-Feb-03 18:14N 40°39' W 074°09'0 0.1
2016-Feb-03 17:09N 40°39' W 074°09'2 1.5
2016-Feb-03 15:33N 40°39' W 074°06'7 6.5
2016-Feb-03 14:33N 40°43' W 073°59'25 6.3
2016-Feb-03 10:32N 40°59' W 073°33'6 6.6
2016-Feb-03 09:33N 41°01' W 073°25'7 6.7
2016-Feb-03 08:31N 41°03' W 073°16'27 6.2
2016-Feb-03 04:07N 41°10' W 072°41'3 5.4
2016-Feb-03 03:33N 41°11' W 072°37'5 5.1
2016-Feb-03 02:33N 41°12' W 072°31'5 4.8
2016-Feb-03 01:33N 41°13' W 072°24'7 4.9
2016-Feb-03 00:12N 41°14' W 072°16'91 4.6
2016-Feb-02 04:22N 42°18' W 070°49'5 6.0
2016-Feb-02 03:33N 42°19' W 070°55'  
Track history (hours):
 
Tides and Currents Weather Stations Pressure Air Temp Water Temp Dewpoint Dewpoint Depression Visibility Wind Speed Wind Dir Waves Ship Positions

Jay Michael

Owner: Sterling Equipment Inc., Quincy, MA. More information available from US FCC via Universal Licensing System and Coast Guard Vessel Documentation Center.

Last reported at 2016-Feb-10 17:27 UTC. Time now 2016-Feb-10 17:39 UTC.
Position N 40°39' W 074°08'.

Length 21 m; draft 2.5 m.

Type: Tug. MMSI: 367110280.

Date/timePositionNaut miles runAvg speedWind from/ knotsBaromVisibWave heightAir tempDewpointWater temp
2016-Feb-10 17:27N 40°39' W 074°08'1 0.2
2016-Feb-10 13:23N 40°39' W 074°09'1 0.9
2016-Feb-10 12:32N 40°38' W 074°09'0 0.0
2016-Feb-10 11:17N 40°38' W 074°09'0 0.0
2016-Feb-10 10:33N 40°38' W 074°09'0 0.0
2016-Feb-10 09:33N 40°38' W 074°09'0 0.0
2016-Feb-10 06:32N 40°38' W 074°09'0 0.0
2016-Feb-10 05:25N 40°38' W 074°09'0 0.0
2016-Feb-10 03:25N 40°38' W 074°09'0 0.0
2016-Feb-10 02:21N 40°38' W 074°09'0 0.0
2016-Feb-10 01:33N 40°38' W 074°09'0 0.0
2016-Feb-10 00:24N 40°38' W 074°09'0 0.0
2016-Feb-09 23:24N 40°38' W 074°09'0 0.0
2016-Feb-09 22:24N 40°38' W 074°09'0 0.0
2016-Feb-09 20:31N 40°38' W 074°09'0 0.0
2016-Feb-09 19:33N 40°38' W 074°09'0 0.0
2016-Feb-09 18:33N 40°38' W 074°09'0 0.0
2016-Feb-09 17:33N 40°38' W 074°09'0 0.0
2016-Feb-09 16:30N 40°38' W 074°09'0 0.0
2016-Feb-09 15:33N 40°38' W 074°09'0 0.0
2016-Feb-09 14:33N 40°38' W 074°09'2 0.1
2016-Feb-08 19:28N 40°38' W 074°12'1 1.2
2016-Feb-08 18:21N 40°39' W 074°10'1 1.0
2016-Feb-08 17:33N 40°39' W 074°11'  
2016-Feb-04 02:33N 40°38' W 074°09'0 0.0
2016-Feb-04 01:32N 40°38' W 074°09'0 0.0
2016-Feb-04 00:33N 40°38' W 074°09'0 0.0
2016-Feb-03 23:33N 40°38' W 074°09'0 0.0
2016-Feb-03 22:33N 40°38' W 074°09'1 0.7
2016-Feb-03 20:29N 40°39' W 074°11'2 1.6
2016-Feb-03 19:20N 40°39' W 074°09'0 0.1
2016-Feb-03 18:14N 40°39' W 074°09'0 0.1
2016-Feb-03 17:09N 40°39' W 074°09'2 1.5
2016-Feb-03 15:33N 40°39' W 074°06'7 6.5
2016-Feb-03 14:33N 40°43' W 073°59'25 6.3
2016-Feb-03 10:32N 40°59' W 073°33'6 6.6
2016-Feb-03 09:33N 41°01' W 073°25'7 6.7
2016-Feb-03 08:31N 41°03' W 073°16'27 6.2
2016-Feb-03 04:07N 41°10' W 072°41'3 5.4
2016-Feb-03 03:33N 41°11' W 072°37'5 5.1
2016-Feb-03 02:33N 41°12' W 072°31'5 4.8
2016-Feb-03 01:33N 41°13' W 072°24'7 4.9
2016-Feb-03 00:12N 41°14' W 072°16'91 4.6
2016-Feb-02 04:22N 42°18' W 070°49'5 6.0
2016-Feb-02 03:33N 42°19' W 070°55'  

Dump ship's entire track history